KBWI/BWI METAR and TAF weather

Enter ICAO airport designator
Station Type Date Time Source
KBWI METAR 2018/12/12 15:54 UTC NOAA

KBWI 121554Z 27006KT 10SM FEW180 OVC250 06/M04 A3020 RMK AO2 SLP229 T00611044


Station Type Date Time Source
KBWI Decoded METAR 2018/12/12 15:54 UTC NOAA

BALTIMORE-WASHINGTON INTERNATIONAL , MD, United States (KBWI) 39-10N 076-41W 59M
Dec 12, 2018 - 10:54 AM EST / 2018.12.12 1554 UTC
Wind: from the W (270 degrees) at 7 MPH (6 KT):0
Visibility: 10 mile(s):0
Sky conditions: overcast
Temperature: 43.0 F (6.1 C)
Dew Point: 24.1 F (-4.4 C)
Relative Humidity: 46%
Pressure (altimeter): 30.2 in. Hg (1022 hPa)
ob: KBWI 121554Z 27006KT 10SM FEW180 OVC250 06/M04 A3020 RMK AO2 SLP229 T00611044
cycle: 16

Station Type Date Time Source
KBWI TAF 2018/12/12 15:24 UTC NOAA

TAF
AMD KBWI 121523Z 1215/1318 29008KT P6SM FEW180 BKN250
FM122000 VRB04KT P6SM BKN150
FM130500 VRB03KT P6SM BKN070


Example: see airport list